sensor_id;sensor_type;location;lat;lon;timestamp;pressure;altitude;pressure_sealevel;temperature
27826;BMP280;15077;49.704;9.908;2023-04-25T00:01:35;97437.72;;;13.61
27826;BMP280;15077;49.704;9.908;2023-04-25T00:04:06;97439.34;;;13.62
27826;BMP280;15077;49.704;9.908;2023-04-25T00:06:34;97444.63;;;13.59
27826;BMP280;15077;49.704;9.908;2023-04-25T00:09:05;97443.09;;;13.57
27826;BMP280;15077;49.704;9.908;2023-04-25T00:11:34;97439.75;;;13.57
27826;BMP280;15077;49.704;9.908;2023-04-25T00:14:02;97444.84;;;13.57
27826;BMP280;15077;49.704;9.908;2023-04-25T00:16:29;97438.94;;;13.56
27826;BMP280;15077;49.704;9.908;2023-04-25T00:18:59;97434.66;;;13.57
27826;BMP280;15077;49.704;9.908;2023-04-25T00:21:25;97435.44;;;13.57
27826;BMP280;15077;49.704;9.908;2023-04-25T00:23:53;97434.66;;;13.57
27826;BMP280;15077;49.704;9.908;2023-04-25T00:26:19;97434.66;;;13.57
27826;BMP280;15077;49.704;9.908;2023-04-25T00:28:48;97443.19;;;13.56
27826;BMP280;15077;49.704;9.908;2023-04-25T00:31:16;97445.03;;;13.54
27826;BMP280;15077;49.704;9.908;2023-04-25T00:33:43;97438.19;;;13.54
27826;BMP280;15077;49.704;9.908;2023-04-25T00:36:09;97443.19;;;13.56
27826;BMP280;15077;49.704;9.908;2023-04-25T00:38:35;97430.34;;;13.57
27826;BMP280;15077;49.704;9.908;2023-04-25T00:41:01;97430.25;;;13.58
27826;BMP280;15077;49.704;9.908;2023-04-25T00:43:27;97424.38;;;13.58
27826;BMP280;15077;49.704;9.908;2023-04-25T00:45:55;97425.91;;;13.60
27826;BMP280;15077;49.704;9.908;2023-04-25T00:48:23;97423.38;;;13.60
27826;BMP280;15077;49.704;9.908;2023-04-25T00:50:55;97426.81;;;13.59
27826;BMP280;15077;49.704;9.908;2023-04-25T00:53:25;97427.00;;;13.57
27826;BMP280;15077;49.704;9.908;2023-04-25T00:55:53;97425.25;;;13.57
27826;BMP280;15077;49.704;9.908;2023-04-25T00:58:21;97415.28;;;13.54
27826;BMP280;15077;49.704;9.908;2023-04-25T01:00:51;97418.84;;;13.52
27826;BMP280;15077;49.704;9.908;2023-04-25T01:03:20;97412.22;;;13.49
27826;BMP280;15077;49.704;9.908;2023-04-25T01:05:48;97414.16;;;13.46
27826;BMP280;15077;49.704;9.908;2023-04-25T01:08:16;97413.41;;;13.44
27826;BMP280;15077;49.704;9.908;2023-04-25T01:10:47;97412.69;;;13.42
27826;BMP280;15077;49.704;9.908;2023-04-25T01:13:13;97408.69;;;13.38
27826;BMP280;15077;49.704;9.908;2023-04-25T01:15:38;97407.88;;;13.37
27826;BMP280;15077;49.704;9.908;2023-04-25T01:18:06;97417.25;;;13.37
27826;BMP280;15077;49.704;9.908;2023-04-25T01:20:34;97407.97;;;13.36
27826;BMP280;15077;49.704;9.908;2023-04-25T01:23:02;97403.00;;;13.34
27826;BMP280;15077;49.704;9.908;2023-04-25T01:25:31;97408.88;;;13.35
27826;BMP280;15077;49.704;9.908;2023-04-25T01:27:59;97404.69;;;13.34
27826;BMP280;15077;49.704;9.908;2023-04-25T01:30:27;97415.81;;;13.33
27826;BMP280;15077;49.704;9.908;2023-04-25T01:32:57;97405.72;;;13.31
27826;BMP280;15077;49.704;9.908;2023-04-25T01:35:23;97404.16;;;13.29
27826;BMP280;15077;49.704;9.908;2023-04-25T01:37:50;97407.63;;;13.28
27826;BMP280;15077;49.704;9.908;2023-04-25T01:40:18;97411.28;;;13.24
27826;BMP280;15077;49.704;9.908;2023-04-25T01:42:47;97408.09;;;13.20
27826;BMP280;15077;49.704;9.908;2023-04-25T01:45:15;97412.47;;;13.18
27826;BMP280;15077;49.704;9.908;2023-04-25T01:47:42;97408.19;;;13.19
27826;BMP280;15077;49.704;9.908;2023-04-25T01:50:10;97408.19;;;13.19
27826;BMP280;15077;49.704;9.908;2023-04-25T01:52:36;97405.63;;;13.19
27826;BMP280;15077;49.704;9.908;2023-04-25T01:55:03;97398.84;;;13.19
27826;BMP280;15077;49.704;9.908;2023-04-25T01:57:30;97405.63;;;13.19
27826;BMP280;15077;49.704;9.908;2023-04-25T02:00:04;97402.19;;;13.20
27826;BMP280;15077;49.704;9.908;2023-04-25T02:02:37;97400.47;;;13.20
27826;BMP280;15077;49.704;9.908;2023-04-25T02:05:03;97405.53;;;13.20
27826;BMP280;15077;49.704;9.908;2023-04-25T02:07:31;97400.28;;;13.23
27826;BMP280;15077;49.704;9.908;2023-04-25T02:09:57;97400.28;;;13.23
27826;BMP280;15077;49.704;9.908;2023-04-25T02:12:24;97407.00;;;13.24
27826;BMP280;15077;49.704;9.908;2023-04-25T02:14:51;97407.00;;;13.24
27826;BMP280;15077;49.704;9.908;2023-04-25T02:17:19;97402.72;;;13.25
27826;BMP280;15077;49.704;9.908;2023-04-25T02:19:44;97404.56;;;13.23
27826;BMP280;15077;49.704;9.908;2023-04-25T02:22:12;97412.91;;;13.25
27826;BMP280;15077;49.704;9.908;2023-04-25T02:24:40;97413.81;;;13.24
27826;BMP280;15077;49.704;9.908;2023-04-25T02:27:06;97418.91;;;13.24
27826;BMP280;15077;49.704;9.908;2023-04-25T02:29:34;97412.28;;;13.21
27826;BMP280;15077;49.704;9.908;2023-04-25T02:32:00;97420.91;;;13.19
27826;BMP280;15077;49.704;9.908;2023-04-25T02:34:27;97414.31;;;13.16
27826;BMP280;15077;49.704;9.908;2023-04-25T02:36:54;97411.00;;;13.14
27826;BMP280;15077;49.704;9.908;2023-04-25T02:39:24;97411.09;;;13.13
27826;BMP280;15077;49.704;9.908;2023-04-25T02:41:52;97416.28;;;13.11
27826;BMP280;15077;49.704;9.908;2023-04-25T02:44:20;97413.84;;;13.10
27826;BMP280;15077;49.704;9.908;2023-04-25T02:46:47;97407.22;;;13.08
27826;BMP280;15077;49.704;9.908;2023-04-25T02:49:14;97402.25;;;13.06
27826;BMP280;15077;49.704;9.908;2023-04-25T02:51:40;97404.97;;;13.03
27826;BMP280;15077;49.704;9.908;2023-04-25T02:54:07;97399.13;;;13.01
27826;BMP280;15077;49.704;9.908;2023-04-25T02:56:38;97402.59;;;13.00
27826;BMP280;15077;49.704;9.908;2023-04-25T02:59:06;97397.72;;;12.97
27826;BMP280;15077;49.704;9.908;2023-04-25T03:01:32;97401.16;;;12.96
27826;BMP280;15077;49.704;9.908;2023-04-25T03:03:59;97407.03;;;12.97
27826;BMP280;15077;49.704;9.908;2023-04-25T03:06:27;97396.06;;;12.96
27826;BMP280;15077;49.704;9.908;2023-04-25T03:08:53;97396.06;;;12.96
27826;BMP280;15077;49.704;9.908;2023-04-25T03:11:18;97402.06;;;12.95
27826;BMP280;15077;49.704;9.908;2023-04-25T03:13:45;97397.72;;;12.97
27826;BMP280;15077;49.704;9.908;2023-04-25T03:16:12;97394.22;;;12.98
27826;BMP280;15077;49.704;9.908;2023-04-25T03:18:40;97400.97;;;12.99
27826;BMP280;15077;49.704;9.908;2023-04-25T03:21:08;97400.78;;;13.02
27826;BMP280;15077;49.704;9.908;2023-04-25T03:23:36;97397.44;;;13.02
27826;BMP280;15077;49.704;9.908;2023-04-25T03:26:02;97399.88;;;13.03
27826;BMP280;15077;49.704;9.908;2023-04-25T03:28:29;97400.59;;;13.05
27826;BMP280;15077;49.704;9.908;2023-04-25T03:31:00;97395.50;;;13.05
27826;BMP280;15077;49.704;9.908;2023-04-25T03:33:26;97398.06;;;13.05
27826;BMP280;15077;49.704;9.908;2023-04-25T03:35:54;97401.41;;;13.06
27826;BMP280;15077;49.704;9.908;2023-04-25T03:38:21;97397.16;;;13.06
27826;BMP280;15077;49.704;9.908;2023-04-25T03:40:47;97402.25;;;13.06
27826;BMP280;15077;49.704;9.908;2023-04-25T03:43:14;97397.16;;;13.06
27826;BMP280;15077;49.704;9.908;2023-04-25T03:45:40;97403.03;;;13.07
27826;BMP280;15077;49.704;9.908;2023-04-25T03:48:06;97404.69;;;13.08
27826;BMP280;15077;49.704;9.908;2023-04-25T03:50:32;97409.78;;;13.08
27826;BMP280;15077;49.704;9.908;2023-04-25T03:52:58;97406.41;;;13.07
27826;BMP280;15077;49.704;9.908;2023-04-25T03:55:23;97408.94;;;13.07
27826;BMP280;15077;49.704;9.908;2023-04-25T03:57:49;97419.13;;;13.07
27826;BMP280;15077;49.704;9.908;2023-04-25T04:00:15;97414.03;;;13.07
27826;BMP280;15077;49.704;9.908;2023-04-25T04:02:41;97415.66;;;13.08
27826;BMP280;15077;49.704;9.908;2023-04-25T04:05:07;97417.41;;;13.08
27826;BMP280;15077;49.704;9.908;2023-04-25T04:07:33;97421.75;;;13.06
27826;BMP280;15077;49.704;9.908;2023-04-25T04:10:02;97424.38;;;13.04
27826;BMP280;15077;49.704;9.908;2023-04-25T04:12:27;97427.03;;;13.03
27826;BMP280;15077;49.704;9.908;2023-04-25T04:14:54;97425.41;;;13.02
27826;BMP280;15077;49.704;9.908;2023-04-25T04:17:20;97421.13;;;13.02
27826;BMP280;15077;49.704;9.908;2023-04-25T04:19:46;97426.31;;;13.01
27826;BMP280;15077;49.704;9.908;2023-04-25T04:22:11;97425.41;;;13.02
27826;BMP280;15077;49.704;9.908;2023-04-25T04:24:37;97425.50;;;13.00
27826;BMP280;15077;49.704;9.908;2023-04-25T04:27:03;97427.31;;;12.98
27826;BMP280;15077;49.704;9.908;2023-04-25T04:29:29;97438.41;;;12.97
27826;BMP280;15077;49.704;9.908;2023-04-25T04:31:55;97435.84;;;12.97
27826;BMP280;15077;49.704;9.908;2023-04-25T04:34:21;97442.66;;;12.97
27826;BMP280;15077;49.704;9.908;2023-04-25T04:36:47;97438.50;;;12.96
27826;BMP280;15077;49.704;9.908;2023-04-25T04:39:13;97439.31;;;12.96
27826;BMP280;15077;49.704;9.908;2023-04-25T04:41:39;97442.75;;;12.95
27826;BMP280;15077;49.704;9.908;2023-04-25T04:44:06;97443.66;;;12.94
27826;BMP280;15077;49.704;9.908;2023-04-25T04:46:35;97442.94;;;12.92
27826;BMP280;15077;49.704;9.908;2023-04-25T04:49:11;97434.69;;;12.89
27826;BMP280;15077;49.704;9.908;2023-04-25T04:51:38;97437.50;;;12.84
27826;BMP280;15077;49.704;9.908;2023-04-25T04:54:04;97438.53;;;12.80
27826;BMP280;15077;49.704;9.908;2023-04-25T04:56:30;97448.00;;;12.78
27826;BMP280;15077;49.704;9.908;2023-04-25T04:58:59;97448.00;;;12.78
27826;BMP280;15077;49.704;9.908;2023-04-25T05:01:25;97451.44;;;12.77
27826;BMP280;15077;49.704;9.908;2023-04-25T05:03:52;97449.78;;;12.76
27826;BMP280;15077;49.704;9.908;2023-04-25T05:06:21;97452.34;;;12.76
27826;BMP280;15077;49.704;9.908;2023-04-25T05:08:46;97446.44;;;12.76
27826;BMP280;15077;49.704;9.908;2023-04-25T05:11:12;97446.34;;;12.77
27826;BMP280;15077;49.704;9.908;2023-04-25T05:13:38;97444.88;;;12.73
27826;BMP280;15077;49.704;9.908;2023-04-25T05:16:04;97447.63;;;12.70
27826;BMP280;15077;49.704;9.908;2023-04-25T05:18:29;97449.53;;;12.67
27826;BMP280;15077;49.704;9.908;2023-04-25T05:20:55;97450.50;;;12.64
27826;BMP280;15077;49.704;9.908;2023-04-25T05:23:21;97456.53;;;12.63
27826;BMP280;15077;49.704;9.908;2023-04-25T05:25:47;97449.63;;;12.65
27826;BMP280;15077;49.704;9.908;2023-04-25T05:28:13;97462.16;;;12.68
27826;BMP280;15077;49.704;9.908;2023-04-25T05:30:39;97452.69;;;12.70
27826;BMP280;15077;49.704;9.908;2023-04-25T05:33:05;97467.06;;;12.71
27826;BMP280;15077;49.704;9.908;2023-04-25T05:35:31;97460.13;;;12.73
27826;BMP280;15077;49.704;9.908;2023-04-25T05:37:56;97461.69;;;12.76
27826;BMP280;15077;49.704;9.908;2023-04-25T05:40:22;97464.25;;;12.76
27826;BMP280;15077;49.704;9.908;2023-04-25T05:42:48;97460.81;;;12.77
27826;BMP280;15077;49.704;9.908;2023-04-25T05:45:14;97457.31;;;12.78
27826;BMP280;15077;49.704;9.908;2023-04-25T05:47:40;97464.06;;;12.79
27826;BMP280;15077;49.704;9.908;2023-04-25T05:50:06;97463.97;;;12.80
27826;BMP280;15077;49.704;9.908;2023-04-25T05:52:32;97466.50;;;12.80
27826;BMP280;15077;49.704;9.908;2023-04-25T05:54:58;97468.97;;;12.82
27826;BMP280;15077;49.704;9.908;2023-04-25T05:57:26;97468.16;;;12.81
27826;BMP280;15077;49.704;9.908;2023-04-25T05:59:52;97479.06;;;12.83
27826;BMP280;15077;49.704;9.908;2023-04-25T06:02:20;97475.72;;;12.83
27826;BMP280;15077;49.704;9.908;2023-04-25T06:04:51;97481.63;;;12.83
27826;BMP280;15077;49.704;9.908;2023-04-25T06:07:18;97489.97;;;12.85
27826;BMP280;15077;49.704;9.908;2023-04-25T06:09:45;97490.72;;;12.87
27826;BMP280;15077;49.704;9.908;2023-04-25T06:12:11;97489.78;;;12.88
27826;BMP280;15077;49.704;9.908;2023-04-25T06:14:37;97488.78;;;12.91
27826;BMP280;15077;49.704;9.908;2023-04-25T06:17:04;97487.91;;;12.92
27826;BMP280;15077;49.704;9.908;2023-04-25T06:19:35;97494.53;;;12.94
27826;BMP280;15077;49.704;9.908;2023-04-25T06:22:02;97487.63;;;12.96
27826;BMP280;15077;49.704;9.908;2023-04-25T06:24:28;97492.53;;;12.99
27826;BMP280;15077;49.704;9.908;2023-04-25T06:26:54;97494.09;;;13.02
27826;BMP280;15077;49.704;9.908;2023-04-25T06:29:20;97494.81;;;13.04
27826;BMP280;15077;49.704;9.908;2023-04-25T06:31:46;97501.44;;;13.06
27826;BMP280;15077;49.704;9.908;2023-04-25T06:34:12;97497.78;;;13.10
27826;BMP280;15077;49.704;9.908;2023-04-25T06:36:38;97499.34;;;13.12
27826;BMP280;15077;49.704;9.908;2023-04-25T06:39:04;97496.63;;;13.15
27826;BMP280;15077;49.704;9.908;2023-04-25T06:41:30;97499.88;;;13.17
27826;BMP280;15077;49.704;9.908;2023-04-25T06:43:55;97502.31;;;13.19
27826;BMP280;15077;49.704;9.908;2023-04-25T06:46:21;97511.59;;;13.20
27826;BMP280;15077;49.704;9.908;2023-04-25T06:48:47;97509.06;;;13.20
27826;BMP280;15077;49.704;9.908;2023-04-25T06:51:12;97514.06;;;13.21
27826;BMP280;15077;49.704;9.908;2023-04-25T06:53:41;97510.53;;;13.24
27826;BMP280;15077;49.704;9.908;2023-04-25T06:56:07;97507.78;;;13.27
27826;BMP280;15077;49.704;9.908;2023-04-25T06:58:32;97508.41;;;13.30
27826;BMP280;15077;49.704;9.908;2023-04-25T07:00:58;97510.69;;;13.35
27826;BMP280;15077;49.704;9.908;2023-04-25T07:03:24;97509.78;;;13.36
27826;BMP280;15077;49.704;9.908;2023-04-25T07:05:50;97523.13;;;13.39
27826;BMP280;15077;49.704;9.908;2023-04-25T07:08:16;97526.50;;;13.40
27826;BMP280;15077;49.704;9.908;2023-04-25T07:10:42;97522.94;;;13.42
27826;BMP280;15077;49.704;9.908;2023-04-25T07:13:08;97520.31;;;13.44
27826;BMP280;15077;49.704;9.908;2023-04-25T07:15:34;97523.59;;;13.46
27826;BMP280;15077;49.704;9.908;2023-04-25T07:18:00;97517.56;;;13.47
27826;BMP280;15077;49.704;9.908;2023-04-25T07:20:26;97525.03;;;13.50
27826;BMP280;15077;49.704;9.908;2023-04-25T07:22:53;97514.66;;;13.53
27826;BMP280;15077;49.704;9.908;2023-04-25T07:25:19;97521.22;;;13.57
27826;BMP280;15077;49.704;9.908;2023-04-25T07:27:45;97524.28;;;13.61
27826;BMP280;15077;49.704;9.908;2023-04-25T07:30:12;97520.63;;;13.65
27826;BMP280;15077;49.704;9.908;2023-04-25T07:32:38;97521.34;;;13.67
27826;BMP280;15077;49.704;9.908;2023-04-25T07:35:05;97533.72;;;13.73
27826;BMP280;15077;49.704;9.908;2023-04-25T07:37:33;97530.25;;;13.74
27826;BMP280;15077;49.704;9.908;2023-04-25T07:39:59;97526.81;;;13.75
27826;BMP280;15077;49.704;9.908;2023-04-25T07:42:24;97538.50;;;13.78
27826;BMP280;15077;49.704;9.908;2023-04-25T07:44:50;97532.53;;;13.79
27826;BMP280;15077;49.704;9.908;2023-04-25T07:47:17;97529.88;;;13.80
27826;BMP280;15077;49.704;9.908;2023-04-25T07:49:44;97537.44;;;13.82
27826;BMP280;15077;49.704;9.908;2023-04-25T07:52:11;97532.25;;;13.83
27826;BMP280;15077;49.704;9.908;2023-04-25T07:54:37;97538.88;;;13.86
27826;BMP280;15077;49.704;9.908;2023-04-25T07:57:03;97538.78;;;13.87
27826;BMP280;15077;49.704;9.908;2023-04-25T07:59:29;97537.88;;;13.88
27826;BMP280;15077;49.704;9.908;2023-04-25T08:01:54;97537.88;;;13.88
27826;BMP280;15077;49.704;9.908;2023-04-25T08:04:22;97534.31;;;13.91
27826;BMP280;15077;49.704;9.908;2023-04-25T08:06:48;97544.31;;;13.94
27826;BMP280;15077;49.704;9.908;2023-04-25T08:09:14;97542.41;;;13.97
27826;BMP280;15077;49.704;9.908;2023-04-25T08:11:41;97543.72;;;14.03
27826;BMP280;15077;49.704;9.908;2023-04-25T08:14:09;97543.47;;;14.07
27826;BMP280;15077;49.704;9.908;2023-04-25T08:16:35;97544.94;;;14.11
27826;BMP280;15077;49.704;9.908;2023-04-25T08:19:01;97554.13;;;14.13
27826;BMP280;15077;49.704;9.908;2023-04-25T08:21:26;97554.72;;;14.17
27826;BMP280;15077;49.704;9.908;2023-04-25T08:23:53;97553.63;;;14.21
27826;BMP280;15077;49.704;9.908;2023-04-25T08:26:18;97556.00;;;14.24
27826;BMP280;15077;49.704;9.908;2023-04-25T08:28:44;97554.97;;;14.26
27826;BMP280;15077;49.704;9.908;2023-04-25T08:31:10;97558.06;;;14.31
27826;BMP280;15077;49.704;9.908;2023-04-25T08:33:36;97561.22;;;14.35
27826;BMP280;15077;49.704;9.908;2023-04-25T08:36:02;97566.66;;;14.43
27826;BMP280;15077;49.704;9.908;2023-04-25T08:38:28;97556.06;;;14.49
27826;BMP280;15077;49.704;9.908;2023-04-25T08:40:54;97552.38;;;14.53
27826;BMP280;15077;49.704;9.908;2023-04-25T08:43:23;97560.38;;;14.60
27826;BMP280;15077;49.704;9.908;2023-04-25T08:45:53;97559.78;;;14.69
27826;BMP280;15077;49.704;9.908;2023-04-25T08:48:21;97557.53;;;14.77
27826;BMP280;15077;49.704;9.908;2023-04-25T08:50:53;97556.94;;;14.86
27826;BMP280;15077;49.704;9.908;2023-04-25T08:53:32;97567.69;;;14.91
27826;BMP280;15077;49.704;9.908;2023-04-25T08:56:00;97564.53;;;15.00
27826;BMP280;15077;49.704;9.908;2023-04-25T08:58:30;97564.81;;;15.08
27826;BMP280;15077;49.704;9.908;2023-04-25T09:00:56;97565.97;;;15.16
27826;BMP280;15077;49.704;9.908;2023-04-25T09:03:22;97571.28;;;15.26
27826;BMP280;15077;49.704;9.908;2023-04-25T09:05:48;97569.16;;;15.32
27826;BMP280;15077;49.704;9.908;2023-04-25T09:08:13;97571.91;;;15.42
27826;BMP280;15077;49.704;9.908;2023-04-25T09:10:40;97578.22;;;15.49
27826;BMP280;15077;49.704;9.908;2023-04-25T09:13:14;97580.16;;;15.57
27826;BMP280;15077;49.704;9.908;2023-04-25T09:15:50;97580.22;;;15.68
27826;BMP280;15077;49.704;9.908;2023-04-25T09:18:28;97580.66;;;15.75
27826;BMP280;15077;49.704;9.908;2023-04-25T09:21:09;97586.34;;;15.78
27826;BMP280;15077;49.704;9.908;2023-04-25T09:23:46;97592.78;;;15.84
27826;BMP280;15077;49.704;9.908;2023-04-25T09:26:17;97596.75;;;15.88
27826;BMP280;15077;49.704;9.908;2023-04-25T09:28:43;97599.19;;;15.89
27826;BMP280;15077;49.704;9.908;2023-04-25T09:31:21;97601.75;;;15.89
27826;BMP280;15077;49.704;9.908;2023-04-25T09:33:47;97601.44;;;15.94
27826;BMP280;15077;49.704;9.908;2023-04-25T09:36:13;97607.16;;;15.97
27826;BMP280;15077;49.704;9.908;2023-04-25T09:38:45;97606.63;;;16.04
27826;BMP280;15077;49.704;9.908;2023-04-25T09:41:11;97609.81;;;15.96
27826;BMP280;15077;49.704;9.908;2023-04-25T09:43:39;97606.31;;;16.09
27826;BMP280;15077;49.704;9.908;2023-04-25T09:46:09;97616.09;;;16.15
27826;BMP280;15077;49.704;9.908;2023-04-25T09:48:37;97620.09;;;16.19
27826;BMP280;15077;49.704;9.908;2023-04-25T09:53:38;97611.81;;;16.28
27826;BMP280;15077;49.704;9.908;2023-04-25T09:56:08;97611.69;;;16.29
27826;BMP280;15077;49.704;9.908;2023-04-25T09:58:36;97612.28;;;16.33
27826;BMP280;15077;49.704;9.908;2023-04-25T10:01:06;97614.63;;;16.36
27826;BMP280;15077;49.704;9.908;2023-04-25T10:03:36;97627.91;;;16.41
27826;BMP280;15077;49.704;9.908;2023-04-25T10:06:07;97632.69;;;16.45
27826;BMP280;15077;49.704;9.908;2023-04-25T10:08:36;97622.13;;;16.50
27826;BMP280;15077;49.704;9.908;2023-04-25T10:11:08;97630.31;;;16.54
27826;BMP280;15077;49.704;9.908;2023-04-25T10:13:35;97628.22;;;16.59
27826;BMP280;15077;49.704;9.908;2023-04-25T10:16:04;97624.53;;;16.63
27826;BMP280;15077;49.704;9.908;2023-04-25T10:18:32;97628.53;;;16.67
27826;BMP280;15077;49.704;9.908;2023-04-25T10:21:04;97623.75;;;16.74
27826;BMP280;15077;49.704;9.908;2023-04-25T10:23:31;97622.69;;;16.65
27826;BMP280;15077;49.704;9.908;2023-04-25T10:25:58;97631.81;;;16.80
27826;BMP280;15077;49.704;9.908;2023-04-25T10:28:24;97632.09;;;16.88
27826;BMP280;15077;49.704;9.908;2023-04-25T10:31:00;97632.22;;;16.98
27826;BMP280;15077;49.704;9.908;2023-04-25T10:33:42;97627.69;;;17.01
27826;BMP280;15077;49.704;9.908;2023-04-25T10:36:19;97635.97;;;17.04
27826;BMP280;15077;49.704;9.908;2023-04-25T10:38:50;97640.75;;;17.09
27826;BMP280;15077;49.704;9.908;2023-04-25T10:41:19;97629.25;;;17.14
27826;BMP280;15077;49.704;9.908;2023-04-25T10:43:47;97628.94;;;17.19
27826;BMP280;15077;49.704;9.908;2023-04-25T10:46:25;97638.75;;;17.25
27826;BMP280;15077;49.704;9.908;2023-04-25T10:48:55;97633.16;;;17.31
27826;BMP280;15077;49.704;9.908;2023-04-25T10:51:32;97643.19;;;17.34
27826;BMP280;15077;49.704;9.908;2023-04-25T10:54:06;97635.97;;;17.39
27826;BMP280;15077;49.704;9.908;2023-04-25T10:56:37;97643.31;;;17.43
27826;BMP280;15077;49.704;9.908;2023-04-25T10:59:16;97650.06;;;17.44
27826;BMP280;15077;49.704;9.908;2023-04-25T11:01:46;97648.09;;;17.48
27826;BMP280;15077;49.704;9.908;2023-04-25T11:04:32;97648.19;;;17.46
27826;BMP280;15077;49.704;9.908;2023-04-25T11:07:26;97646.56;;;17.45
27826;BMP280;15077;49.704;9.908;2023-04-25T11:09:54;97656.00;;;17.45
27826;BMP280;15077;49.704;9.908;2023-04-25T11:12:20;97654.38;;;17.44
27826;BMP280;15077;49.704;9.908;2023-04-25T11:14:45;97649.13;;;17.45
27826;BMP280;15077;49.704;9.908;2023-04-25T11:17:11;97657.66;;;17.46
27826;BMP280;15077;49.704;9.908;2023-04-25T11:19:37;97655.19;;;17.44
27826;BMP280;15077;49.704;9.908;2023-04-25T11:22:03;97651.13;;;17.42
27826;BMP280;15077;49.704;9.908;2023-04-25T11:24:34;97655.31;;;17.43
27826;BMP280;15077;49.704;9.908;2023-04-25T11:27:02;97655.31;;;17.43
27826;BMP280;15077;49.704;9.908;2023-04-25T11:29:29;97660.56;;;17.41
27826;BMP280;15077;49.704;9.908;2023-04-25T11:31:56;97658.78;;;17.42
27826;BMP280;15077;49.704;9.908;2023-04-25T11:34:30;97667.16;;;17.44
27826;BMP280;15077;49.704;9.908;2023-04-25T11:36:57;97669.97;;;17.41
27826;BMP280;15077;49.704;9.908;2023-04-25T11:39:25;97668.56;;;17.37
27826;BMP280;15077;49.704;9.908;2023-04-25T11:41:52;97666.59;;;17.29
27826;BMP280;15077;49.704;9.908;2023-04-25T11:44:19;97658.50;;;17.23
27826;BMP280;15077;49.704;9.908;2023-04-25T11:46:45;97661.19;;;17.21
27826;BMP280;15077;49.704;9.908;2023-04-25T11:49:12;97665.38;;;17.22
27826;BMP280;15077;49.704;9.908;2023-04-25T11:51:43;97667.03;;;17.23
27826;BMP280;15077;49.704;9.908;2023-04-25T11:54:10;97664.34;;;17.25
27826;BMP280;15077;49.704;9.908;2023-04-25T11:56:35;97668.53;;;17.26
27826;BMP280;15077;49.704;9.908;2023-04-25T11:59:04;97676.00;;;17.29
27826;BMP280;15077;49.704;9.908;2023-04-25T12:01:33;97671.94;;;17.26
27826;BMP280;15077;49.704;9.908;2023-04-25T12:04:20;97681.13;;;17.29
27826;BMP280;15077;49.704;9.908;2023-04-25T12:06:48;97668.19;;;17.30
27826;BMP280;15077;49.704;9.908;2023-04-25T12:09:17;97672.06;;;17.36
27826;BMP280;15077;49.704;9.908;2023-04-25T12:11:58;97674.41;;;17.39
27826;BMP280;15077;49.704;9.908;2023-04-25T12:14:30;97680.94;;;17.43
27826;BMP280;15077;49.704;9.908;2023-04-25T12:17:00;97677.53;;;17.42
27826;BMP280;15077;49.704;9.908;2023-04-25T12:19:32;97672.53;;;17.41
27826;BMP280;15077;49.704;9.908;2023-04-25T12:22:01;97678.59;;;17.40
27826;BMP280;15077;49.704;9.908;2023-04-25T12:24:28;97686.97;;;17.42
27826;BMP280;15077;49.704;9.908;2023-04-25T12:27:05;97678.38;;;17.43
27826;BMP280;15077;49.704;9.908;2023-04-25T12:29:32;97677.41;;;17.44
27826;BMP280;15077;49.704;9.908;2023-04-25T12:31:59;97684.88;;;17.47
27826;BMP280;15077;49.704;9.908;2023-04-25T12:34:28;97697.56;;;17.48
27826;BMP280;15077;49.704;9.908;2023-04-25T12:36:54;97699.34;;;17.48
27826;BMP280;15077;49.704;9.908;2023-04-25T12:39:24;97708.06;;;17.45
27826;BMP280;15077;49.704;9.908;2023-04-25T12:41:51;97709.22;;;17.41
27826;BMP280;15077;49.704;9.908;2023-04-25T12:44:20;97715.38;;;17.39
27826;BMP280;15077;49.704;9.908;2023-04-25T12:46:47;97717.25;;;17.37
27826;BMP280;15077;49.704;9.908;2023-04-25T12:49:13;97723.41;;;17.34
27826;BMP280;15077;49.704;9.908;2023-04-25T12:51:40;97723.75;;;17.30
27826;BMP280;15077;49.704;9.908;2023-04-25T12:54:07;97721.41;;;17.27
27826;BMP280;15077;49.704;9.908;2023-04-25T12:56:34;97730.94;;;17.25
27826;BMP280;15077;49.704;9.908;2023-04-25T12:59:02;97731.97;;;17.22
27826;BMP280;15077;49.704;9.908;2023-04-25T13:01:30;97729.72;;;17.18
27826;BMP280;15077;49.704;9.908;2023-04-25T13:03:57;97720.63;;;17.14
27826;BMP280;15077;49.704;9.908;2023-04-25T13:06:23;97731.28;;;17.08
27826;BMP280;15077;49.704;9.908;2023-04-25T13:08:48;97729.78;;;17.05
27826;BMP280;15077;49.704;9.908;2023-04-25T13:11:14;97735.22;;;17.01
27826;BMP280;15077;49.704;9.908;2023-04-25T13:13:40;97731.25;;;16.97
27826;BMP280;15077;49.704;9.908;2023-04-25T13:16:07;97746.00;;;16.94
27826;BMP280;15077;49.704;9.908;2023-04-25T13:18:33;97737.03;;;16.88
27826;BMP280;15077;49.704;9.908;2023-04-25T13:21:00;97733.75;;;16.86
27826;BMP280;15077;49.704;9.908;2023-04-25T13:23:28;97747.28;;;16.88
27826;BMP280;15077;49.704;9.908;2023-04-25T13:25:55;97747.88;;;16.92
27826;BMP280;15077;49.704;9.908;2023-04-25T13:28:26;97748.66;;;16.92
27826;BMP280;15077;49.704;9.908;2023-04-25T13:30:52;97746.22;;;16.91
27826;BMP280;15077;49.704;9.908;2023-04-25T13:33:19;97742.16;;;16.88
27826;BMP280;15077;49.704;9.908;2023-04-25T13:35:47;97748.06;;;16.89
27826;BMP280;15077;49.704;9.908;2023-04-25T13:38:23;97752.19;;;16.91
27826;BMP280;15077;49.704;9.908;2023-04-25T13:40:49;97749.63;;;16.91
27826;BMP280;15077;49.704;9.908;2023-04-25T13:43:21;97750.19;;;16.95
27826;BMP280;15077;49.704;9.908;2023-04-25T13:45:48;97750.09;;;16.96
27826;BMP280;15077;49.704;9.908;2023-04-25T13:48:14;97752.53;;;16.98
27826;BMP280;15077;49.704;9.908;2023-04-25T13:50:40;97754.78;;;17.02
27826;BMP280;15077;49.704;9.908;2023-04-25T13:53:07;97758.75;;;17.06
27826;BMP280;15077;49.704;9.908;2023-04-25T13:55:34;97757.63;;;17.10
27826;BMP280;15077;49.704;9.908;2023-04-25T13:58:02;97762.63;;;17.11
27826;BMP280;15077;49.704;9.908;2023-04-25T14:00:35;97753.09;;;17.13
27826;BMP280;15077;49.704;9.908;2023-04-25T14:03:03;97757.41;;;17.13
27826;BMP280;15077;49.704;9.908;2023-04-25T14:05:33;97765.09;;;17.13
27826;BMP280;15077;49.704;9.908;2023-04-25T14:08:07;97771.94;;;17.12
27826;BMP280;15077;49.704;9.908;2023-04-25T14:10:35;97767.66;;;17.13
27826;BMP280;15077;49.704;9.908;2023-04-25T14:13:01;97772.03;;;17.11
27826;BMP280;15077;49.704;9.908;2023-04-25T14:15:30;97774.81;;;17.08